Time;durP1;ratioP1;P1;durP2;ratioP2;P2;SDS_P1;SDS_P2;PMS_P1;PMS_P2;Temp;Humidity;BMP_temperature;BMP_pressure;BME280_temperature;BME280_humidity;BME280_pressure;Samples;Min_cycle;Max_cycle;Signal;HPM_P1;HPM_P2
2021/08/02 00:01:34;;;;;;;;;;;;;;;;;;5028742;28;20315;-66
2021/08/02 00:04:01;;;;;;;;;;;;;;;;;;5027387;28;19925;-67
2021/08/02 00:06:28;;;;;;;;;;;;;;;;;;5026516;28;19983;-67
2021/08/02 00:08:55;;;;;;;;;;;;;;;;;;5030975;28;19925;-67
2021/08/02 00:11:22;;;;;;;;;;;;;;;;;;5026048;28;19931;-67
2021/08/02 00:13:49;;;;;;;;;;;;;;;;;;5028974;28;19929;-65
2021/08/02 00:16:16;;;;;;;;;;;;;;;;;;5022028;28;19940;-65
2021/08/02 00:18:43;;;;;;;;;;;;;;;;;;5028422;28;19925;-65
2021/08/02 00:21:10;;;;;;;;;;;;;;;;;;5022882;28;20179;-65
2021/08/02 00:23:39;;;;;;;;;;;;;;;;;;5026871;28;19925;-65
2021/08/02 00:26:06;;;;;;;;;;;;;;;;;;5026414;28;19933;-65
2021/08/02 00:28:33;;;;;;;;;;;;;;;;;;5027260;28;19925;-65
2021/08/02 00:31:00;;;;;;;;;;;;;;;;;;5024671;28;19925;-65
2021/08/02 00:33:27;;;;;;;;;;;;;;;;;;5024047;28;19932;-65
2021/08/02 00:35:54;;;;;;;;;;;;;;;;;;5021498;28;19930;-65
2021/08/02 00:38:22;;;;;;;;;;;;;;;;;;5022715;28;20020;-68
2021/08/02 00:40:49;;;;;;;;;;;;;;;;;;5027179;28;19933;-65
2021/08/02 00:43:15;;;;;;;;;;;;;;;;;;5028049;28;19925;-65
2021/08/02 00:45:42;;;;;;;;;;;;;;;;;;5025301;28;20310;-65
2021/08/02 00:48:09;;;;;;;;;;;;;;;;;;5022461;28;19925;-65
2021/08/02 00:50:36;;;;;;;;;;;;;;;;;;5024820;28;20027;-65
2021/08/02 00:53:03;;;;;;;;;;;;;;;;;;5023382;28;19931;-65
2021/08/02 00:55:30;;;;;;;;;;;;;;;;;;5025328;28;19933;-65
2021/08/02 00:57:57;;;;;;;;;;;;;;;;;;5024579;28;19932;-65
2021/08/02 01:00:24;;;;;;;;;;;;;;;;;;5025520;28;19925;-65
2021/08/02 01:02:51;;;;;;;;;;;;;;;;;;5025765;28;19925;-67
2021/08/02 01:05:18;;;;;;;;;;;;;;;;;;5026816;28;19925;-67
2021/08/02 01:07:45;;;;;;;;;;;;;;;;;;5028640;28;20384;-67
2021/08/02 01:10:12;;;;;;;;;;;;;;;;;;5028477;28;19964;-67
2021/08/02 01:12:39;;;;;;;;;;;;;;;;;;5028181;28;19965;-67
2021/08/02 01:15:06;;;;;;;;;;;;;;;;;;5023093;28;19933;-67
2021/08/02 01:17:33;;;;;;;;;;;;;;;;;;5021260;28;19933;-66
2021/08/02 01:20:00;;;;;;;;;;;;;;;;;;5025855;28;19929;-66
2021/08/02 01:22:27;;;;;;;;;;;;;;;;;;5028545;28;19925;-66
2021/08/02 01:24:54;;;;;;;;;;;;;;;;;;5028698;28;19931;-66
2021/08/02 01:27:21;;;;;;;;;;;;;;;;;;5026797;28;19929;-66
2021/08/02 01:29:48;;;;;;;;;;;;;;;;;;5024144;28;19936;-66
2021/08/02 01:32:15;;;;;;;;;;;;;;;;;;5019415;28;20024;-66
2021/08/02 01:34:42;;;;;;;;;;;;;;;;;;5024898;28;19929;-66
2021/08/02 01:37:08;;;;;;;;;;;;;;;;;;5026857;28;19929;-66
2021/08/02 01:39:35;;;;;;;;;;;;;;;;;;5024237;28;19932;-66
2021/08/02 01:42:02;;;;;;;;;;;;;;;;;;5022482;28;19925;-66
2021/08/02 01:44:29;;;;;;;;;;;;;;;;;;5025784;28;19951;-66
2021/08/02 01:46:56;;;;;;;;;;;;;;;;;;5026245;28;20641;-66
2021/08/02 01:49:23;;;;;;;;;;;;;;;;;;5019035;28;20296;-66
2021/08/02 01:51:50;;;;;;;;;;;;;;;;;;5021314;28;19980;-66
2021/08/02 01:54:17;;;;;;;;;;;;;;;;;;5025820;28;19975;-66
2021/08/02 01:56:44;;;;;;;;;;;;;;;;;;5027233;28;19933;-66
2021/08/02 01:59:11;;;;;;;;;;;;;;;;;;5024526;28;19929;-66
2021/08/02 02:01:38;;;;;;;;;;;;;;;;;;5030561;28;19932;-66
2021/08/02 02:04:05;;;;;;;;;;;;;;;;;;5027291;28;19930;-66
2021/08/02 02:06:32;;;;;;;;;;;;;;;;;;5029064;28;19936;-66
2021/08/02 02:08:59;;;;;;;;;;;;;;;;;;5027132;28;20039;-66
2021/08/02 02:11:26;;;;;;;;;;;;;;;;;;5028615;28;19936;-66
2021/08/02 02:13:53;;;;;;;;;;;;;;;;;;5025067;28;19925;-66
2021/08/02 02:16:20;;;;;;;;;;;;;;;;;;5029207;28;19944;-66
2021/08/02 02:18:49;;;;;;;;;;;;;;;;;;5023820;28;20013;-66
2021/08/02 02:21:16;;;;;;;;;;;;;;;;;;5027939;28;19940;-66
2021/08/02 02:23:43;;;;;;;;;;;;;;;;;;5031418;28;19925;-66
2021/08/02 02:26:10;;;;;;;;;;;;;;;;;;5027380;28;20576;-66
2021/08/02 02:28:37;;;;;;;;;;;;;;;;;;5028644;28;20266;-66
2021/08/02 02:31:04;;;;;;;;;;;;;;;;;;5022170;28;19925;-67
2021/08/02 02:33:30;;;;;;;;;;;;;;;;;;5030107;28;19941;-66
2021/08/02 02:35:57;;;;;;;;;;;;;;;;;;5032838;28;19925;-66
2021/08/02 02:38:24;;;;;;;;;;;;;;;;;;5028957;28;19924;-66
2021/08/02 02:40:51;;;;;;;;;;;;;;;;;;5028967;28;20321;-66
2021/08/02 02:43:18;;;;;;;;;;;;;;;;;;5030470;28;19948;-66
2021/08/02 02:45:45;;;;;;;;;;;;;;;;;;5025442;28;20309;-66
2021/08/02 02:48:12;;;;;;;;;;;;;;;;;;5026830;28;19929;-66
2021/08/02 02:50:39;;;;;;;;;;;;;;;;;;5026461;28;19933;-66
2021/08/02 02:53:06;;;;;;;;;;;;;;;;;;5023031;28;19925;-66
2021/08/02 02:55:33;;;;;;;;;;;;;;;;;;5027602;28;19929;-66
2021/08/02 02:58:00;;;;;;;;;;;;;;;;;;5025267;28;19926;-66
2021/08/02 03:00:27;;;;;;;;;;;;;;;;;;5028240;28;19932;-66
2021/08/02 03:02:54;;;;;;;;;;;;;;;;;;5028778;28;19925;-66
2021/08/02 03:05:21;;;;;;;;;;;;;;;;;;5028474;28;19940;-66
2021/08/02 03:07:48;;;;;;;;;;;;;;;;;;5024859;28;19933;-66
2021/08/02 03:10:15;;;;;;;;;;;;;;;;;;5025968;28;19948;-66
2021/08/02 03:12:41;;;;;;;;;;;;;;;;;;5029638;28;19936;-67
2021/08/02 03:15:08;;;;;;;;;;;;;;;;;;5026652;28;19932;-67
2021/08/02 03:17:35;;;;;;;;;;;;;;;;;;5027928;28;19925;-67
2021/08/02 03:20:03;;;;;;;;;;;;;;;;;;5024286;28;19932;-67
2021/08/02 03:22:30;;;;;;;;;;;;;;;;;;5025794;28;20339;-67
2021/08/02 03:24:57;;;;;;;;;;;;;;;;;;5026288;28;20416;-67
2021/08/02 03:27:24;;;;;;;;;;;;;;;;;;5024785;28;20385;-67
2021/08/02 03:29:51;;;;;;;;;;;;;;;;;;5025854;28;19932;-67
2021/08/02 03:32:18;;;;;;;;;;;;;;;;;;5027437;28;20736;-67
2021/08/02 03:34:45;;;;;;;;;;;;;;;;;;5021869;28;19926;-66
2021/08/02 03:37:12;;;;;;;;;;;;;;;;;;5027022;28;19929;-66
2021/08/02 03:39:39;;;;;;;;;;;;;;;;;;5029847;28;20027;-66
2021/08/02 03:42:05;;;;;;;;;;;;;;;;;;5032498;22;19928;-67
2021/08/02 03:44:32;;;;;;;;;;;;;;;;;;5026159;28;20377;-67
2021/08/02 03:46:59;;;;;;;;;;;;;;;;;;5023410;28;19925;-67
2021/08/02 03:49:26;;;;;;;;;;;;;;;;;;5024208;28;19932;-67
2021/08/02 03:51:53;;;;;;;;;;;;;;;;;;5024820;28;19926;-67
2021/08/02 03:54:20;;;;;;;;;;;;;;;;;;5026897;28;19925;-67
2021/08/02 03:56:47;;;;;;;;;;;;;;;;;;5023769;28;19933;-67
2021/08/02 03:59:14;;;;;;;;;;;;;;;;;;5034747;28;20373;-67
2021/08/02 04:01:41;;;;;;;;;;;;;;;;;;5029088;28;20459;-67
2021/08/02 04:04:08;;;;;;;;;;;;;;;;;;5029823;28;19953;-67
2021/08/02 04:06:35;;;;;;;;;;;;;;;;;;5029244;28;19927;-68
2021/08/02 04:09:03;;;;;;;;;;;;;;;;;;5028761;28;19925;-67
2021/08/02 04:11:29;;;;;;;;;;;;;;;;;;5025172;28;20055;-67
2021/08/02 04:13:56;;;;;;;;;;;;;;;;;;5027490;28;19932;-67
2021/08/02 04:16:23;;;;;;;;;;;;;;;;;;5026799;28;20381;-67
2021/08/02 04:18:50;;;;;;;;;;;;;;;;;;5022193;28;19925;-67
2021/08/02 04:21:17;;;;;;;;;;;;;;;;;;5020137;28;19947;-67
2021/08/02 04:23:44;;;;;;;;;;;;;;;;;;5029125;28;19934;-67
2021/08/02 04:26:12;;;;;;;;;;;;;;;;;;5024402;28;19925;-67
2021/08/02 04:28:39;;;;;;;;;;;;;;;;;;5019986;28;19933;-67
2021/08/02 04:31:06;;;;;;;;;;;;;;;;;;5025123;28;19932;-67
2021/08/02 04:33:33;;;;;;;;;;;;;;;;;;5020850;28;19930;-67
2021/08/02 04:36:00;;;;;;;;;;;;;;;;;;5023864;28;20305;-67
2021/08/02 04:38:27;;;;;;;;;;;;;;;;;;5024306;28;20009;-67
2021/08/02 04:40:54;;;;;;;;;;;;;;;;;;5026690;28;19933;-67
2021/08/02 04:43:20;;;;;;;;;;;;;;;;;;5029570;28;19925;-68
2021/08/02 04:45:47;;;;;;;;;;;;;;;;;;5023353;28;19933;-67
2021/08/02 04:48:14;;;;;;;;;;;;;;;;;;5020619;28;19925;-67
2021/08/02 04:50:43;;;;;;;;;;;;;;;;;;5022995;28;19925;-67
2021/08/02 04:53:10;;;;;;;;;;;;;;;;;;5022490;28;19926;-67
2021/08/02 04:55:37;;;;;;;;;;;;;;;;;;5029663;28;19925;-68
2021/08/02 04:58:05;;;;;;;;;;;;;;;;;;5023831;28;19925;-67
2021/08/02 05:00:32;;;;;;;;;;;;;;;;;;5020213;28;19926;-68
2021/08/02 05:03:00;;;;;;;;;;;;;;;;;;5024197;28;20016;-68
2021/08/02 05:05:27;;;;;;;;;;;;;;;;;;5026174;28;20644;-68
2021/08/02 05:07:54;;;;;;;;;;;;;;;;;;5024944;28;19941;-68
2021/08/02 05:10:21;;;;;;;;;;;;;;;;;;5022317;28;19925;-68
2021/08/02 05:12:48;;;;;;;;;;;;;;;;;;5025652;28;20324;-67
2021/08/02 05:15:15;;;;;;;;;;;;;;;;;;5026881;28;19952;-67
2021/08/02 05:17:42;;;;;;;;;;;;;;;;;;5026722;28;19932;-66
2021/08/02 05:20:10;;;;;;;;;;;;;;;;;;5019665;28;20016;-67
2021/08/02 05:22:37;;;;;;;;;;;;;;;;;;5024963;28;20399;-67
2021/08/02 05:25:04;;;;;;;;;;;;;;;;;;5028578;28;20301;-66
2021/08/02 05:27:31;;;;;;;;;;;;;;;;;;5028623;28;19932;-67
2021/08/02 05:29:58;;;;;;;;;;;;;;;;;;5028142;28;19925;-67
2021/08/02 05:32:25;;;;;;;;;;;;;;;;;;5025790;28;19932;-67
2021/08/02 05:34:52;;;;;;;;;;;;;;;;;;5030112;28;20296;-68
2021/08/02 05:37:19;;;;;;;;;;;;;;;;;;5028880;28;20000;-68
2021/08/02 05:39:46;;;;;;;;;;;;;;;;;;5026340;28;19925;-67
2021/08/02 05:42:13;;;;;;;;;;;;;;;;;;5028760;28;20341;-67
2021/08/02 05:44:40;;;;;;;;;;;;;;;;;;5025649;28;19926;-67
2021/08/02 05:47:11;;;;;;;;;;;;;;;;;;5022300;28;19939;-67
2021/08/02 05:49:38;;;;;;;;;;;;;;;;;;5025585;28;19929;-67
2021/08/02 05:52:05;;;;;;;;;;;;;;;;;;5027246;28;20375;-67
2021/08/02 05:54:32;;;;;;;;;;;;;;;;;;5021045;28;19933;-67
2021/08/02 05:56:59;;;;;;;;;;;;;;;;;;5022317;28;20407;-67
2021/08/02 05:59:26;;;;;;;;;;;;;;;;;;5022890;28;19933;-67
2021/08/02 06:01:53;;;;;;;;;;;;;;;;;;5023279;28;19935;-67
2021/08/02 06:04:20;;;;;;;;;;;;;;;;;;5032180;28;19933;-67
2021/08/02 06:06:47;;;;;;;;;;;;;;;;;;5022441;28;19925;-67
2021/08/02 06:09:14;;;;;;;;;;;;;;;;;;5019318;28;19925;-68
2021/08/02 06:11:41;;;;;;;;;;;;;;;;;;5025513;28;19925;-68
2021/08/02 06:14:08;;;;;;;;;;;;;;;;;;5027485;28;20019;-68
2021/08/02 06:16:35;;;;;;;;;;;;;;;;;;5022355;28;20392;-68
2021/08/02 06:19:02;;;;;;;;;;;;;;;;;;5017367;28;20015;-68
2021/08/02 06:21:29;;;;;;;;;;;;;;;;;;5014638;28;20232;-67
2021/08/02 06:23:56;;;;;;;;;;;;;;;;;;5021649;28;19925;-68
2021/08/02 06:26:23;;;;;;;;;;;;;;;;;;5018904;28;20415;-68
2021/08/02 06:28:50;;;;;;;;;;;;;;;;;;5018539;28;19929;-68
2021/08/02 06:31:17;;;;;;;;;;;;;;;;;;5022953;28;19925;-66
2021/08/02 06:33:44;;;;;;;;;;;;;;;;;;5025341;28;20381;-66
2021/08/02 06:36:11;;;;;;;;;;;;;;;;;;5022888;28;20000;-67
2021/08/02 06:38:38;;;;;;;;;;;;;;;;;;5026966;28;19936;-67
2021/08/02 06:41:05;;;;;;;;;;;;;;;;;;5025096;28;20408;-67
2021/08/02 06:43:32;;;;;;;;;;;;;;;;;;5028165;28;19929;-66
2021/08/02 06:45:59;;;;;;;;;;;;;;;;;;5028520;28;19929;-67
2021/08/02 06:48:26;;;;;;;;;;;;;;;;;;5030591;28;19929;-67
2021/08/02 06:50:53;;;;;;;;;;;;;;;;;;5030429;28;19932;-67
2021/08/02 06:53:20;;;;;;;;;;;;;;;;;;5026024;28;19925;-67
2021/08/02 06:55:48;;;;;;;;;;;;;;;;;;5026825;28;19925;-66
2021/08/02 06:58:15;;;;;;;;;;;;;;;;;;5029879;28;19974;-66
2021/08/02 07:00:42;;;;;;;;;;;;;;;;;;5029171;28;19940;-66
2021/08/02 07:03:09;;;;;;;;;;;;;;;;;;5026847;28;19933;-67
2021/08/02 07:05:36;;;;;;;;;;;;;;;;;;5029799;28;20289;-67
2021/08/02 07:08:03;;;;;;;;;;;;;;;;;;5028520;28;19933;-66
2021/08/02 07:10:30;;;;;;;;;;;;;;;;;;5025075;28;19933;-66
2021/08/02 07:12:57;;;;;;;;;;;;;;;;;;5030276;28;19925;-66
2021/08/02 07:15:24;;;;;;;;;;;;;;;;;;5029366;28;19925;-66
2021/08/02 07:17:51;;;;;;;;;;;;;;;;;;5033276;28;20135;-68
2021/08/02 07:20:18;;;;;;;;;;;;;;;;;;5030056;28;19932;-67
2021/08/02 07:22:45;;;;;;;;;;;;;;;;;;5026713;28;19925;-67
2021/08/02 07:25:13;;;;;;;;;;;;;;;;;;5029209;28;19929;-68
2021/08/02 07:27:41;;;;;;;;;;;;;;;;;;5025254;28;20296;-67
2021/08/02 07:30:08;;;;;;;;;;;;;;;;;;5019393;28;19940;-67
2021/08/02 07:32:35;;;;;;;;;;;;;;;;;;5024815;28;20287;-67
2021/08/02 07:35:02;;;;;;;;;;;;;;;;;;5029655;28;19926;-67
2021/08/02 07:37:29;;;;;;;;;;;;;;;;;;5030284;28;19933;-67
2021/08/02 07:39:56;;;;;;;;;;;;;;;;;;5030256;28;19925;-66
2021/08/02 07:42:23;;;;;;;;;;;;;;;;;;5028391;28;19947;-66
2021/08/02 07:44:50;;;;;;;;;;;;;;;;;;5023811;28;19925;-68
2021/08/02 07:47:17;;;;;;;;;;;;;;;;;;5029372;28;19925;-67
2021/08/02 07:49:44;;;;;;;;;;;;;;;;;;5025722;28;20036;-66
2021/08/02 07:52:11;;;;;;;;;;;;;;;;;;5027437;28;19933;-67
2021/08/02 07:54:38;;;;;;;;;;;;;;;;;;5028910;28;19936;-67
2021/08/02 07:57:06;;;;;;;;;;;;;;;;;;5027991;28;19983;-66
2021/08/02 07:59:33;;;;;;;;;;;;;;;;;;5025577;28;19976;-67
2021/08/02 08:02:00;;;;;;;;;;;;;;;;;;5027369;28;19929;-68
2021/08/02 08:04:27;;;;;;;;;;;;;;;;;;5025837;28;19933;-67
2021/08/02 08:06:54;;;;;;;;;;;;;;;;;;5027461;28;19932;-66
2021/08/02 08:09:21;;;;;;;;;;;;;;;;;;5027722;28;19929;-66
2021/08/02 08:11:48;;;;;;;;;;;;;;;;;;5027856;28;20007;-67
2021/08/02 08:14:15;;;;;;;;;;;;;;;;;;5031217;28;20328;-66
2021/08/02 08:16:42;;;;;;;;;;;;;;;;;;5027964;28;19936;-66
2021/08/02 08:19:09;;;;;;;;;;;;;;;;;;5028753;28;21088;-67
2021/08/02 08:21:37;;;;;;;;;;;;;;;;;;5025262;28;19929;-65
2021/08/02 08:24:05;;;;;;;;;;;;;;;;;;5022206;28;20323;-66
2021/08/02 08:26:32;;;;;;;;;;;;;;;;;;5024852;28;19936;-67
2021/08/02 08:28:59;;;;;;;;;;;;;;;;;;5024424;28;19933;-66
2021/08/02 08:31:26;;;;;;;;;;;;;;;;;;5025970;28;19925;-68
2021/08/02 08:33:55;;;;;;;;;;;;;;;;;;5023727;28;19926;-66
2021/08/02 08:36:22;;;;;;;;;;;;;;;;;;5024077;28;19925;-68
2021/08/02 08:38:49;;;;;;;;;;;;;;;;;;5026891;28;19933;-68
2021/08/02 08:41:16;;;;;;;;;;;;;;;;;;5020689;28;19933;-67
2021/08/02 08:43:43;;;;;;;;;;;;;;;;;;5020566;28;19937;-68
2021/08/02 08:46:10;;;;;;;;;;;;;;;;;;5025341;28;20313;-69
2021/08/02 08:48:37;;;;;;;;;;;;;;;;;;5023932;28;19933;-67
2021/08/02 08:51:04;;;;;;;;;;;;;;;;;;5020589;28;19933;-67
2021/08/02 08:53:32;;;;;;;;;;;;;;;;;;5021964;28;19980;-68
2021/08/02 08:56:00;;;;;;;;;;;;;;;;;;5024680;28;19970;-67
2021/08/02 08:58:27;;;;;;;;;;;;;;;;;;5023253;28;19929;-67
2021/08/02 09:00:54;;;;;;;;;;;;;;;;;;5025224;28;19925;-67
2021/08/02 09:03:23;;;;;;;;;;;;;;;;;;5023142;28;19925;-67
2021/08/02 09:05:50;;;;;;;;;;;;;;;;;;5026005;28;19926;-67
2021/08/02 09:08:17;;;;;;;;;;;;;;;;;;5025931;28;19925;-67
2021/08/02 09:10:44;;;;;;;;;;;;;;;;;;5027398;28;20024;-67
2021/08/02 09:13:11;;;;;;;;;;;;;;;;;;5024985;28;19925;-67
2021/08/02 09:15:38;;;;;;;;;;;;;;;;;;5024193;28;19933;-66
2021/08/02 09:18:06;;;;;;;;;;;;;;;;;;5027607;28;20344;-67
2021/08/02 09:20:33;;;;;;;;;;;;;;;;;;5024228;28;19941;-67
2021/08/02 09:23:00;;;;;;;;;;;;;;;;;;5025670;28;19928;-66
2021/08/02 09:25:27;;;;;;;;;;;;;;;;;;5024136;28;19925;-67
2021/08/02 09:27:54;;;;;;;;;;;;;;;;;;5022154;28;19931;-66
2021/08/02 09:30:21;;;;;;;;;;;;;;;;;;5024347;28;19925;-67
2021/08/02 09:32:48;;;;;;;;;;;;;;;;;;5016911;28;20540;-68
2021/08/02 09:35:15;;;;;;;;;;;;;;;;;;5023722;28;19925;-68
2021/08/02 09:37:42;;;;;;;;;;;;;;;;;;5020860;28;20370;-66
2021/08/02 09:40:09;;;;;;;;;;;;;;;;;;5027989;28;19913;-67
2021/08/02 09:42:36;;;;;;;;;;;;;;;;;;5027576;28;19925;-67
2021/08/02 09:45:03;;;;;;;;;;;;;;;;;;5025007;28;19932;-67
2021/08/02 09:47:30;;;;;;;;;;;;;;;;;;5026634;28;19932;-66
2021/08/02 09:49:57;;;;;;;;;;;;;;;;;;5023936;28;19933;-66
2021/08/02 09:52:24;;;;;;;;;;;;;;;;;;5020580;28;19932;-67
2021/08/02 09:54:51;;;;;;;;;;;;;;;;;;5018089;28;19925;-67
2021/08/02 09:57:18;;;;;;;;;;;;;;;;;;5022430;28;19942;-66
2021/08/02 09:59:45;;;;;;;;;;;;;;;;;;5025316;28;20329;-67
2021/08/02 10:02:12;;;;;;;;;;;;;;;;;;5022560;28;19978;-66
2021/08/02 10:04:40;;;;;;;;;;;;;;;;;;5025298;28;19987;-66
2021/08/02 10:07:09;;;;;;;;;;;;;;;;;;5023820;28;20036;-66
2021/08/02 10:09:36;;;;;;;;;;;;;;;;;;5022387;28;19938;-67
2021/08/02 10:12:03;;;;;;;;;;;;;;;;;;5020805;28;19933;-66
2021/08/02 10:14:30;;;;;;;;;;;;;;;;;;5022222;28;20427;-68
2021/08/02 10:16:57;;;;;;;;;;;;;;;;;;5023105;28;20443;-64
2021/08/02 10:19:24;;;;;;;;;;;;;;;;;;5028222;28;20295;-66
2021/08/02 10:21:51;;;;;;;;;;;;;;;;;;5026153;28;19925;-66
2021/08/02 10:24:18;;;;;;;;;;;;;;;;;;5028253;28;19936;-67
2021/08/02 10:26:45;;;;;;;;;;;;;;;;;;5030179;28;19933;-67
2021/08/02 10:29:12;;;;;;;;;;;;;;;;;;5030898;28;19932;-67
2021/08/02 10:31:39;;;;;;;;;;;;;;;;;;5028857;28;19929;-66
2021/08/02 10:34:06;;;;;;;;;;;;;;;;;;5029095;28;19929;-67
2021/08/02 10:36:33;;;;;;;;;;;;;;;;;;5031572;28;20331;-66
2021/08/02 10:39:00;;;;;;;;;;;;;;;;;;5029638;28;19991;-66
2021/08/02 10:41:27;;;;;;;;;;;;;;;;;;5024409;28;19925;-67
2021/08/02 10:43:54;;;;;;;;;;;;;;;;;;5027252;28;19925;-67
2021/08/02 10:46:21;;;;;;;;;;;;;;;;;;5028174;28;19948;-67
2021/08/02 10:48:48;;;;;;;;;;;;;;;;;;5024860;28;21432;-67
2021/08/02 10:51:15;;;;;;;;;;;;;;;;;;5028972;28;19961;-67
2021/08/02 10:53:42;;;;;;;;;;;;;;;;;;5027692;28;19932;-66
2021/08/02 10:56:09;;;;;;;;;;;;;;;;;;5028957;28;19932;-67
2021/08/02 10:58:38;;;;;;;;;;;;;;;;;;5029387;28;19932;-67
2021/08/02 11:01:05;;;;;;;;;;;;;;;;;;5024671;28;19979;-68
2021/08/02 11:03:32;;;;;;;;;;;;;;;;;;5029473;28;19935;-69
2021/08/02 11:05:59;;;;;;;;;;;;;;;;;;5027603;28;20416;-68
2021/08/02 11:08:26;;;;;;;;;;;;;;;;;;5029587;28;20388;-67
2021/08/02 11:10:53;;;;;;;;;;;;;;;;;;5023077;28;19932;-65
2021/08/02 11:13:20;;;;;;;;;;;;;;;;;;5024373;28;20015;-66
2021/08/02 11:15:47;;;;;;;;;;;;;;;;;;5027826;28;19925;-67
2021/08/02 11:18:14;;;;;;;;;;;;;;;;;;5028830;28;19925;-67
2021/08/02 11:20:41;;;;;;;;;;;;;;;;;;5029015;28;19932;-66
2021/08/02 11:23:08;;;;;;;;;;;;;;;;;;5028836;28;19945;-67
2021/08/02 11:25:37;;;;;;;;;;;;;;;;;;5024072;28;19925;-67
2021/08/02 11:28:04;;;;;;;;;;;;;;;;;;5027529;28;20294;-68
2021/08/02 11:30:31;;;;;;;;;;;;;;;;;;5027035;28;20250;-67
2021/08/02 11:32:58;;;;;;;;;;;;;;;;;;5024798;28;19929;-67
2021/08/02 11:35:25;;;;;;;;;;;;;;;;;;5026516;28;20300;-68
2021/08/02 11:37:52;;;;;;;;;;;;;;;;;;5027350;28;19925;-68
2021/08/02 11:40:19;;;;;;;;;;;;;;;;;;5025827;28;19929;-69
2021/08/02 11:42:47;;;;;;;;;;;;;;;;;;5027570;28;20393;-67
2021/08/02 11:45:14;;;;;;;;;;;;;;;;;;5027447;28;20000;-68
2021/08/02 11:47:41;;;;;;;;;;;;;;;;;;5027846;28;19925;-66
2021/08/02 11:50:08;;;;;;;;;;;;;;;;;;5029953;28;20020;-66
2021/08/02 11:52:35;;;;;;;;;;;;;;;;;;5029113;28;20008;-67
2021/08/02 11:55:02;;;;;;;;;;;;;;;;;;5026368;28;19931;-66
2021/08/02 11:57:29;;;;;;;;;;;;;;;;;;5027672;28;19932;-67
2021/08/02 11:59:56;;;;;;;;;;;;;;;;;;5027682;28;19933;-68
2021/08/02 12:02:23;;;;;;;;;;;;;;;;;;5028891;28;19932;-66
2021/08/02 12:04:50;;;;;;;;;;;;;;;;;;5030694;28;19925;-66
2021/08/02 12:07:17;;;;;;;;;;;;;;;;;;5027856;28;20361;-67
2021/08/02 12:09:47;;;;;;;;;;;;;;;;;;5028807;28;20285;-67
2021/08/02 12:12:14;;;;;;;;;;;;;;;;;;5027799;28;19940;-68
2021/08/02 12:14:41;;;;;;;;;;;;;;;;;;5027451;28;19933;-66
2021/08/02 12:17:08;;;;;;;;;;;;;;;;;;5029279;28;19929;-67
2021/08/02 12:19:35;;;;;;;;;;;;;;;;;;5026189;28;19925;-69
2021/08/02 12:22:02;;;;;;;;;;;;;;;;;;5021981;28;20213;-67
2021/08/02 12:24:29;;;;;;;;;;;;;;;;;;5027250;28;19929;-67
2021/08/02 12:26:56;;;;;;;;;;;;;;;;;;5026934;28;20324;-66
2021/08/02 12:29:23;;;;;;;;;;;;;;;;;;5024786;28;19925;-66
2021/08/02 12:31:49;;;;;;;;;;;;;;;;;;5026580;28;19933;-66
2021/08/02 12:34:16;;;;;;;;;;;;;;;;;;5024253;28;19936;-65
2021/08/02 12:36:43;;;;;;;;;;;;;;;;;;5024363;28;19926;-67
2021/08/02 12:39:10;;;;;;;;;;;;;;;;;;5025992;28;19933;-65
2021/08/02 12:41:38;;;;;;;;;;;;;;;;;;5023211;28;19926;-67
2021/08/02 12:44:05;;;;;;;;;;;;;;;;;;5026500;28;20468;-67
2021/08/02 12:46:32;;;;;;;;;;;;;;;;;;5027281;28;19925;-66
2021/08/02 12:48:59;;;;;;;;;;;;;;;;;;5026649;28;19929;-67
2021/08/02 12:51:26;;;;;;;;;;;;;;;;;;5027376;28;19956;-66
2021/08/02 12:53:53;;;;;;;;;;;;;;;;;;5027392;28;19933;-67
2021/08/02 12:56:20;;;;;;;;;;;;;;;;;;5026055;28;19925;-67
2021/08/02 12:58:47;;;;;;;;;;;;;;;;;;5028054;28;19947;-67
2021/08/02 13:01:14;;;;;;;;;;;;;;;;;;5026764;28;19932;-67
2021/08/02 13:03:43;;;;;;;;;;;;;;;;;;5028116;28;20250;-67
2021/08/02 13:06:10;;;;;;;;;;;;;;;;;;5028581;28;19925;-67
2021/08/02 13:08:37;;;;;;;;;;;;;;;;;;5026263;28;19933;-66
2021/08/02 13:11:04;;;;;;;;;;;;;;;;;;5023223;28;19933;-68
2021/08/02 13:13:31;;;;;;;;;;;;;;;;;;5025792;28;19929;-67
2021/08/02 13:15:58;;;;;;;;;;;;;;;;;;5025224;28;19931;-67
2021/08/02 13:18:25;;;;;;;;;;;;;;;;;;5026968;28;19925;-66
2021/08/02 13:20:52;;;;;;;;;;;;;;;;;;5025631;28;20305;-67
2021/08/02 13:23:33;;;;;;;;;;;;;;;;;;5026413;28;19935;-67
2021/08/02 13:28:44;;;;;;;;;;;;;;;;;;5024065;28;20403;-67
2021/08/02 13:31:11;;;;;;;;;;;;;;;;;;5025857;28;19933;-68
2021/08/02 13:33:38;;;;;;;;;;;;;;;;;;5028104;28;20024;-68
2021/08/02 13:36:05;;;;;;;;;;;;;;;;;;5024260;28;19968;-68
2021/08/02 13:38:32;;;;;;;;;;;;;;;;;;5023891;28;19925;-69
2021/08/02 13:40:59;;;;;;;;;;;;;;;;;;5023804;28;20400;-65
2021/08/02 13:43:28;;;;;;;;;;;;;;;;;;5023235;28;20289;-66
2021/08/02 13:45:55;;;;;;;;;;;;;;;;;;5025341;28;19925;-68
2021/08/02 13:48:23;;;;;;;;;;;;;;;;;;5026424;28;19952;-66
2021/08/02 13:50:52;;;;;;;;;;;;;;;;;;5025454;28;20340;-67
2021/08/02 13:53:19;;;;;;;;;;;;;;;;;;5024343;28;19939;-68
2021/08/02 13:55:46;;;;;;;;;;;;;;;;;;5022726;28;19929;-68
2021/08/02 13:58:13;;;;;;;;;;;;;;;;;;5021842;28;19925;-67
2021/08/02 14:00:40;;;;;;;;;;;;;;;;;;5025475;28;19928;-66
2021/08/02 14:03:07;;;;;;;;;;;;;;;;;;5024430;28;20325;-68
2021/08/02 14:05:34;;;;;;;;;;;;;;;;;;5024556;28;19925;-66
2021/08/02 14:08:01;;;;;;;;;;;;;;;;;;5027651;28;19935;-67
2021/08/02 14:10:28;;;;;;;;;;;;;;;;;;5025040;28;19925;-66
2021/08/02 14:12:55;;;;;;;;;;;;;;;;;;5023883;28;20417;-67
2021/08/02 14:15:22;;;;;;;;;;;;;;;;;;5024813;28;19978;-66
2021/08/02 14:17:49;;;;;;;;;;;;;;;;;;5024580;28;19929;-67
2021/08/02 14:20:16;;;;;;;;;;;;;;;;;;5025714;28;19929;-68
2021/08/02 14:22:43;;;;;;;;;;;;;;;;;;5025605;28;19943;-67
2021/08/02 14:25:10;;;;;;;;;;;;;;;;;;5026143;28;19929;-68
2021/08/02 14:27:37;;;;;;;;;;;;;;;;;;5025421;28;19933;-68
2021/08/02 14:30:06;;;;;;;;;;;;;;;;;;5026060;28;19933;-67
2021/08/02 14:32:33;;;;;;;;;;;;;;;;;;5025720;28;20401;-66
2021/08/02 14:35:00;;;;;;;;;;;;;;;;;;5029881;28;19931;-67
2021/08/02 14:37:27;;;;;;;;;;;;;;;;;;5024644;28;19936;-66
2021/08/02 14:39:54;;;;;;;;;;;;;;;;;;5025012;28;19932;-67
2021/08/02 14:42:21;;;;;;;;;;;;;;;;;;5025883;28;19925;-67
2021/08/02 14:44:48;;;;;;;;;;;;;;;;;;5027185;28;21376;-66
2021/08/02 14:47:15;;;;;;;;;;;;;;;;;;5024180;28;20436;-67
2021/08/02 14:49:42;;;;;;;;;;;;;;;;;;5029338;28;19972;-67
2021/08/02 14:52:09;;;;;;;;;;;;;;;;;;5027088;28;19930;-68
2021/08/02 14:54:37;;;;;;;;;;;;;;;;;;5025028;28;20004;-67
2021/08/02 14:57:04;;;;;;;;;;;;;;;;;;5022473;28;20415;-67
2021/08/02 14:59:31;;;;;;;;;;;;;;;;;;5026202;28;19929;-67
2021/08/02 15:01:58;;;;;;;;;;;;;;;;;;5027471;28;19932;-67
2021/08/02 15:04:25;;;;;;;;;;;;;;;;;;5025569;28;19937;-67
2021/08/02 15:06:52;;;;;;;;;;;;;;;;;;5028250;28;19931;-66
2021/08/02 15:09:19;;;;;;;;;;;;;;;;;;5029736;28;19931;-67
2021/08/02 15:11:46;;;;;;;;;;;;;;;;;;5029569;28;19925;-67
2021/08/02 15:14:13;;;;;;;;;;;;;;;;;;5025552;28;19941;-65
2021/08/02 15:16:40;;;;;;;;;;;;;;;;;;5025681;28;19929;-66
2021/08/02 15:19:07;;;;;;;;;;;;;;;;;;5028050;28;20020;-66
2021/08/02 15:21:34;;;;;;;;;;;;;;;;;;5026942;28;19940;-66
2021/08/02 15:24:01;;;;;;;;;;;;;;;;;;5029005;28;19925;-67
2021/08/02 15:26:28;;;;;;;;;;;;;;;;;;5025281;28;20011;-65
2021/08/02 15:28:55;;;;;;;;;;;;;;;;;;5028587;28;19932;-66
2021/08/02 15:31:22;;;;;;;;;;;;;;;;;;5027797;28;19929;-66
2021/08/02 15:33:49;;;;;;;;;;;;;;;;;;5033294;28;19967;-66
2021/08/02 15:36:16;;;;;;;;;;;;;;;;;;5025106;28;19933;-66
2021/08/02 15:38:43;;;;;;;;;;;;;;;;;;5034814;28;19925;-67
2021/08/02 15:41:10;;;;;;;;;;;;;;;;;;5048355;23;19925;-66
2021/08/02 15:43:37;;;;;;;;;;;;;;;;;;5047254;28;19928;-67
2021/08/02 15:46:04;;;;;;;;;;;;;;;;;;5045454;28;19929;-68
2021/08/02 15:48:31;;;;;;;;;;;;;;;;;;5045092;28;19936;-69
2021/08/02 15:50:58;;;;;;;;;;;;;;;;;;5044440;28;19935;-68
2021/08/02 15:53:25;;;;;;;;;;;;;;;;;;5043754;28;20034;-69
2021/08/02 15:55:52;;;;;;;;;;;;;;;;;;5044595;28;19924;-67
2021/08/02 15:58:19;;;;;;;;;;;;;;;;;;5048455;28;19929;-68
2021/08/02 16:00:46;;;;;;;;;;;;;;;;;;5045330;28;19935;-68
2021/08/02 16:03:13;;;;;;;;;;;;;;;;;;5045888;28;19925;-67
2021/08/02 16:05:40;;;;;;;;;;;;;;;;;;5048617;28;19932;-67
2021/08/02 16:08:07;;;;;;;;;;;;;;;;;;5048709;28;20016;-69
2021/08/02 16:10:34;;;;;;;;;;;;;;;;;;5046388;28;20282;-69
2021/08/02 16:13:01;;;;;;;;;;;;;;;;;;5044854;28;19925;-69
2021/08/02 16:15:28;;;;;;;;;;;;;;;;;;5045952;28;19932;-68
2021/08/02 16:17:55;;;;;;;;;;;;;;;;;;5046290;28;20377;-68
2021/08/02 16:20:22;;;;;;;;;;;;;;;;;;5045441;28;19951;-69
2021/08/02 16:22:49;;;;;;;;;;;;;;;;;;5048234;28;19925;-69
2021/08/02 16:25:16;;;;;;;;;;;;;;;;;;5044098;28;20011;-69
2021/08/02 16:27:43;;;;;;;;;;;;;;;;;;5047457;28;20414;-68
2021/08/02 16:30:10;;;;;;;;;;;;;;;;;;5048234;28;19948;-68
2021/08/02 16:32:38;;;;;;;;;;;;;;;;;;5046091;28;19930;-68
2021/08/02 16:35:05;;;;;;;;;;;;;;;;;;5047679;28;19929;-68
2021/08/02 16:37:32;;;;;;;;;;;;;;;;;;5044949;28;19928;-68
2021/08/02 16:39:59;;;;;;;;;;;;;;;;;;5046283;28;19925;-68
2021/08/02 16:42:26;;;;;;;;;;;;;;;;;;5043966;28;19928;-68
2021/08/02 16:44:55;;;;;;;;;;;;;;;;;;5044002;28;20519;-68
2021/08/02 16:47:22;;;;;;;;;;;;;;;;;;5044580;28;19932;-67